Time;durP1;ratioP1;P1;durP2;ratioP2;P2;SDS_P1;SDS_P2;PMS_P1;PMS_P2;Temp;Humidity;BMP_temperature;BMP_pressure;BME280_temperature;BME280_humidity;BME280_pressure;Samples;Min_cycle;Max_cycle;Signal;HPM_P1;HPM_P2
2022/12/11 00:01:25;;;;;;;11.15;4.28;;;;;;;-5.20;84.90;101226.88;5103342;28;20060;-71
2022/12/11 00:03:50;;;;;;;6.82;3.83;;;;;;;-5.21;84.83;101227.81;5117521;28;20035;-72
2022/12/11 00:06:18;;;;;;;14.00;6.95;;;;;;;-5.43;84.84;101191.47;5104282;28;20067;-72
2022/12/11 00:08:44;;;;;;;7.15;4.15;;;;;;;-5.26;84.98;101229.84;5110939;28;20187;-71
2022/12/11 00:11:16;;;;;;;8.32;3.75;;;;;;;-5.19;85.15;101227.72;5111928;28;20032;-72
2022/12/11 00:13:42;;;;;;;6.47;4.10;;;;;;;-5.17;84.91;101231.09;5101521;28;20035;-71
2022/12/11 00:16:08;;;;;;;7.38;4.13;;;;;;;-5.21;85.09;101240.91;5115535;28;20035;-72
2022/12/11 00:18:33;;;;;;;6.03;3.55;;;;;;;-5.23;85.21;101236.72;5106080;28;20367;-72
2022/12/11 00:21:13;;;;;;;6.13;3.58;;;;;;;-5.23;85.16;101240.19;5107426;28;20040;-73
2022/12/11 00:23:39;;;;;;;5.45;3.10;;;;;;;-5.45;84.99;101198.56;5116670;28;20031;-72
2022/12/11 00:26:06;;;;;;;4.80;2.92;;;;;;;-6.02;85.14;101100.50;5112074;28;20106;-79
2022/12/11 00:28:32;;;;;;;5.50;2.90;;;;;;;-5.22;85.04;101234.00;5120352;28;20094;-72
2022/12/11 00:30:57;;;;;;;4.57;2.90;;;;;;;-5.23;84.93;101245.44;5093759;28;20056;-71
2022/12/11 00:33:25;;;;;;;4.97;2.78;;;;;;;-5.26;85.18;101239.50;5100223;28;20085;-72
2022/12/11 00:35:50;;;;;;;5.10;2.80;;;;;;;-5.28;84.92;101241.34;5113364;28;20031;-73
2022/12/11 00:38:18;;;;;;;5.28;3.08;;;;;;;-5.33;84.90;101232.88;5087395;28;20027;-71
2022/12/11 00:40:44;;;;;;;5.13;2.63;;;;;;;-5.34;84.81;101229.44;5108854;28;20032;-72
2022/12/11 00:43:10;;;;;;;4.72;2.63;;;;;;;-5.48;84.83;101211.84;5111490;28;20105;-72
2022/12/11 00:45:36;;;;;;;4.60;2.67;;;;;;;-5.42;84.92;101236.91;5102052;28;20096;-72
2022/12/11 00:48:02;;;;;;;5.30;2.78;;;;;;;-5.40;84.80;101235.00;5086682;28;20096;-72
2022/12/11 00:50:28;;;;;;;4.68;2.83;;;;;;;-5.37;85.06;101239.25;5112224;28;20487;-72
2022/12/11 00:52:53;;;;;;;5.13;2.88;;;;;;;-5.36;85.17;101240.94;5110252;28;20062;-71
2022/12/11 00:55:18;;;;;;;4.97;2.80;;;;;;;-5.43;85.03;101237.81;5105006;28;20024;-72
2022/12/11 00:57:44;;;;;;;4.50;2.50;;;;;;;-5.49;85.05;101235.56;5114198;28;20054;-72
2022/12/11 01:00:11;;;;;;;4.32;3.05;;;;;;;-5.46;84.94;101238.00;5085761;28;20027;-72
2022/12/11 01:02:36;;;;;;;5.68;2.53;;;;;;;-5.48;84.69;101243.31;5109263;28;20059;-72
2022/12/11 01:05:03;;;;;;;4.10;2.50;;;;;;;-5.71;84.93;101230.63;5109709;28;20028;-71
2022/12/11 01:07:28;;;;;;;5.63;2.85;;;;;;;-5.58;85.09;101255.25;5103222;28;20032;-72
2022/12/11 01:12:38;;;;;;;4.10;2.53;;;;;;;-5.56;84.68;101253.41;5115477;28;20084;-76
2022/12/11 01:15:04;;;;;;;4.68;2.63;;;;;;;-5.57;84.54;101253.47;5109231;28;20497;-73
2022/12/11 01:17:30;;;;;;;4.65;2.60;;;;;;;-5.64;84.56;101244.25;5112995;28;20035;-73
2022/12/11 01:19:55;;;;;;;3.83;2.42;;;;;;;-5.60;84.51;101251.00;5096825;28;20505;-71
2022/12/11 01:22:21;;;;;;;4.05;2.58;;;;;;;-5.62;84.42;101255.50;5111457;28;20075;-72
2022/12/11 01:24:46;;;;;;;4.47;2.50;;;;;;;-5.63;84.21;101264.28;5108456;28;20448;-71
2022/12/11 01:27:12;;;;;;;4.40;2.65;;;;;;;-5.63;84.49;101259.88;5105516;28;20071;-72
2022/12/11 01:29:37;;;;;;;5.13;2.80;;;;;;;-5.60;83.98;101261.50;5114052;28;20409;-72
2022/12/11 01:32:03;;;;;;;3.90;2.50;;;;;;;-5.67;84.40;101251.34;5102135;28;20043;-72
2022/12/11 01:34:30;;;;;;;5.50;2.85;;;;;;;-5.62;84.40;101255.50;5110027;28;20032;-71
2022/12/11 01:36:55;;;;;;;4.05;2.25;;;;;;;-5.63;84.48;101253.81;5109664;28;20028;-72
2022/12/11 01:39:21;;;;;;;5.28;2.70;;;;;;;-5.86;83.93;101232.34;5102725;28;20032;-71
2022/12/11 01:41:46;;;;;;;3.47;2.20;;;;;;;-5.73;84.12;101254.31;5096686;28;20032;-71
2022/12/11 01:44:14;;;;;;;4.25;2.22;;;;;;;-5.71;83.93;101257.69;5101041;28;20040;-71
2022/12/11 01:46:41;;;;;;;5.97;2.72;;;;;;;-5.82;84.00;101236.47;5108814;28;20070;-72
2022/12/11 01:49:11;;;;;;;4.30;2.20;;;;;;;-5.73;84.32;101256.06;5108964;28;20019;-72
2022/12/11 01:51:44;;;;;;;4.18;2.15;;;;;;;-5.70;84.08;101264.63;5101824;28;20024;-72
2022/12/11 01:54:13;;;;;;;3.13;2.20;;;;;;;-5.70;84.19;101262.00;5084791;28;20047;-72
2022/12/11 01:56:42;;;;;;;4.88;2.22;;;;;;;-5.69;84.05;101271.56;5107033;28;20064;-72
2022/12/11 01:59:09;;;;;;;4.80;2.50;;;;;;;-5.93;84.19;101225.75;5108745;28;20387;-73
2022/12/11 02:01:46;;;;;;;4.63;2.60;;;;;;;-5.72;84.11;101265.66;5101133;28;20474;-71
2022/12/11 02:04:13;;;;;;;3.95;2.22;;;;;;;-5.84;83.84;101240.09;5086700;28;20114;-72
2022/12/11 02:06:41;;;;;;;4.60;2.60;;;;;;;-5.74;83.85;101262.25;5107669;28;20030;-72
2022/12/11 02:09:13;;;;;;;2.92;1.88;;;;;;;-5.80;83.54;101255.56;5107921;28;20031;-72
2022/12/11 02:12:03;;;;;;;3.95;2.38;;;;;;;-5.86;83.67;101253.31;5100525;28;20077;-72
2022/12/11 02:14:43;;;;;;;3.33;2.10;;;;;;;-5.90;83.70;101246.50;5110355;28;20024;-72
2022/12/11 02:17:08;;;;;;;3.20;2.05;;;;;;;-5.92;83.77;101251.84;5108365;28;20039;-72
2022/12/11 02:19:58;;;;;;;3.70;2.35;;;;;;;-5.96;83.24;101246.88;5101213;28;20028;-72
2022/12/11 02:22:53;;;;;;;5.45;2.47;;;;;;;-5.98;83.77;101243.50;5087782;28;20081;-72
2022/12/11 02:25:45;;;;;;;4.18;2.50;;;;;;;-5.96;83.44;101249.47;5102984;28;20036;-72
2022/12/11 02:28:24;;;;;;;5.10;2.50;;;;;;;-5.94;83.76;101239.78;5097692;28;20441;-72
2022/12/11 02:30:58;;;;;;;3.85;2.58;;;;;;;-5.94;83.81;101245.88;5105568;28;20031;-72
2022/12/11 02:33:36;;;;;;;5.82;2.72;;;;;;;-5.90;83.82;101249.13;5111258;28;20028;-72
2022/12/11 02:36:03;;;;;;;4.50;2.13;;;;;;;-5.90;83.65;101251.75;5100032;28;20043;-72
2022/12/11 02:38:33;;;;;;;4.30;2.45;;;;;;;-5.94;83.46;101256.34;5108595;28;20040;-72
2022/12/11 02:41:00;;;;;;;3.45;2.08;;;;;;;-6.00;83.36;101245.34;5107990;28;20046;-72
2022/12/11 02:43:27;;;;;;;3.85;1.98;;;;;;;-6.03;83.77;101250.75;5101895;28;20032;-72
2022/12/11 02:45:54;;;;;;;15.65;2.78;;;;;;;-6.32;85.43;101250.53;5113101;28;20036;-72
2022/12/11 02:48:23;;;;;;;5.10;2.78;;;;;;;-6.27;84.93;101221.47;5102406;28;20091;-71
2022/12/11 02:50:51;;;;;;;8.23;3.25;;;;;;;-6.05;85.29;101237.75;5105608;28;20036;-71
2022/12/11 02:53:21;;;;;;;28.83;3.40;;;;;;;-6.24;86.27;101224.78;5108577;28;20051;-71
2022/12/11 02:55:51;;;;;;;13.50;3.55;;;;;;;-5.91;85.76;101247.44;5100485;28;20110;-71
2022/12/11 02:58:20;;;;;;;8.63;3.17;;;;;;;-6.14;86.39;101217.28;5116017;28;20088;-78
2022/12/11 03:00:46;;;;;;;7.40;3.83;;;;;;;-5.70;85.94;101246.25;5119325;28;20020;-74
2022/12/11 03:03:12;;;;;;;16.23;3.63;;;;;;;-5.59;85.61;101245.69;5111770;28;20066;-73
2022/12/11 03:05:39;;;;;;;14.93;3.15;;;;;;;-5.73;87.24;101250.84;5116983;28;20035;-73
2022/12/11 03:08:05;;;;;;;13.95;3.90;;;;;;;-5.54;86.86;101246.28;5085124;28;20050;-71
2022/12/11 03:10:31;;;;;;;22.40;3.53;;;;;;;-5.84;88.88;101232.25;5112025;28;20490;-72
2022/12/11 03:12:58;;;;;;;20.48;3.97;;;;;;;-5.69;88.51;101239.28;5127408;27;20094;-72
2022/12/11 03:15:48;;;;;;;16.15;4.00;;;;;;;-5.60;88.73;101227.41;5105440;28;20032;-73
2022/12/11 03:18:32;;;;;;;24.35;3.88;;;;;;;-5.63;89.36;101232.81;5066955;28;20058;-72
2022/12/11 03:21:09;;;;;;;20.10;3.78;;;;;;;-5.70;90.25;101233.16;5109762;28;20097;-72
2022/12/11 03:23:50;;;;;;;11.82;4.60;;;;;;;-5.50;90.36;101231.22;5120195;28;20023;-73
2022/12/11 03:26:17;;;;;;;34.42;4.47;;;;;;;-5.54;90.73;101229.72;5086409;28;20044;-72
2022/12/11 03:28:58;;;;;;;24.80;4.57;;;;;;;-5.55;90.95;101230.66;5111819;28;20032;-71
2022/12/11 03:31:33;;;;;;;17.73;3.95;;;;;;;-5.38;91.01;101227.91;5113914;28;20027;-71
2022/12/11 03:34:02;;;;;;;34.88;5.53;;;;;;;-5.69;91.18;101186.84;5104088;28;20062;-71
2022/12/11 03:36:36;;;;;;;15.38;4.43;;;;;;;-5.51;91.31;101191.03;5113525;28;20043;-72
2022/12/11 03:39:13;;;;;;;13.30;4.72;;;;;;;-5.37;91.14;101215.66;5111995;28;20073;-72
2022/12/11 03:41:43;;;;;;;15.70;4.30;;;;;;;-5.22;90.77;101227.91;5102977;28;20039;-72
2022/12/11 03:44:10;;;;;;;66.93;8.07;;;;;;;-5.13;90.39;101230.00;5088770;28;20355;-72
2022/12/11 03:46:38;;;;;;;16.83;4.55;;;;;;;-5.00;89.99;101227.50;5112808;28;20052;-72
2022/12/11 03:49:14;;;;;;;15.20;4.90;;;;;;;-4.91;89.33;101228.75;5111323;28;20027;-72
2022/12/11 03:51:41;;;;;;;17.80;4.75;;;;;;;-5.10;89.53;101223.72;5104771;28;20038;-72
2022/12/11 03:54:09;;;;;;;24.35;4.65;;;;;;;-5.12;89.98;101215.94;5084300;28;20115;-73
2022/12/11 03:56:35;;;;;;;9.52;4.60;;;;;;;-5.00;89.55;101217.00;5114511;28;20036;-72
2022/12/11 03:59:01;;;;;;;9.82;3.78;;;;;;;-5.10;89.50;101218.47;5111106;28;20087;-72
2022/12/11 04:01:26;;;;;;;13.52;4.40;;;;;;;-5.31;89.83;101210.91;5105795;28;20071;-72
2022/12/11 04:03:52;;;;;;;11.45;4.20;;;;;;;-5.32;89.85;101211.00;5116719;28;20031;-72
2022/12/11 04:06:17;;;;;;;22.88;5.07;;;;;;;-5.35;90.29;101205.94;5086150;28;20078;-72
2022/12/11 04:08:43;;;;;;;11.38;4.57;;;;;;;-5.44;90.01;101178.44;5111951;28;20047;-72
2022/12/11 04:16:37;;;;;;;15.82;4.13;;;;;;;-5.27;89.85;101211.56;5112254;28;20043;-72
2022/12/11 04:24:32;;;;;;;7.95;3.92;;;;;;;-5.37;89.74;101207.78;5113431;28;20031;-72
2022/12/11 04:26:57;;;;;;;9.63;4.30;;;;;;;-5.57;90.27;101187.91;5109225;28;20031;-72
2022/12/11 04:29:23;;;;;;;21.08;4.43;;;;;;;-5.53;90.42;101197.31;5103956;28;20028;-72
2022/12/11 04:31:49;;;;;;;15.52;4.10;;;;;;;-6.43;91.14;101067.78;5097833;28;20035;-72
2022/12/11 04:34:15;;;;;;;9.43;4.55;;;;;;;-5.52;90.53;101199.00;5103725;28;20028;-72
2022/12/11 04:36:40;;;;;;;13.07;4.30;;;;;;;-5.60;90.83;101204.66;5109802;28;20543;-72
2022/12/11 04:39:06;;;;;;;19.60;4.32;;;;;;;-5.72;90.82;101193.09;5110525;28;20019;-72
2022/12/11 04:41:31;;;;;;;14.48;4.32;;;;;;;-5.57;91.11;101206.28;5085663;28;20039;-73
2022/12/11 04:43:58;;;;;;;21.17;4.75;;;;;;;-5.49;90.63;101211.97;5116240;28;20042;-73
2022/12/11 04:46:24;;;;;;;19.92;5.03;;;;;;;-5.43;90.30;101199.34;5103823;28;20104;-72
2022/12/11 04:48:51;;;;;;;13.00;4.50;;;;;;;-5.39;90.24;101210.50;5090944;28;20491;-74
2022/12/11 04:51:18;;;;;;;13.20;4.30;;;;;;;-5.54;90.32;101206.09;5111168;28;20049;-72
2022/12/11 04:53:44;;;;;;;27.63;6.10;;;;;;;-5.47;90.15;101207.44;5100808;28;20050;-72
2022/12/11 04:56:12;;;;;;;10.38;3.97;;;;;;;-5.33;90.14;101215.41;5113988;28;20047;-72
2022/12/11 04:58:39;;;;;;;15.27;4.50;;;;;;;-5.43;89.91;101208.97;5105098;28;20129;-72
2022/12/11 05:01:19;;;;;;;12.77;4.80;;;;;;;-5.44;90.11;101204.66;5107570;28;20043;-72
2022/12/11 05:03:45;;;;;;;25.35;3.42;;;;;;;-5.52;89.71;101209.50;5113689;28;20539;-73
2022/12/11 05:06:11;;;;;;;20.05;4.38;;;;;;;-5.49;89.86;101210.16;5102069;28;20047;-72
2022/12/11 05:08:39;;;;;;;28.45;5.00;;;;;;;-5.58;90.17;101207.22;5111060;28;20031;-72
2022/12/11 05:11:08;;;;;;;17.98;4.07;;;;;;;-5.64;90.56;101202.31;5108734;28;20043;-72
2022/12/11 05:13:35;;;;;;;39.47;4.60;;;;;;;-6.08;91.25;101148.00;5102949;28;20032;-73
2022/12/11 05:16:06;;;;;;;13.25;4.55;;;;;;;-5.67;91.01;101198.06;5113829;28;20054;-72
2022/12/11 05:18:31;;;;;;;16.23;4.10;;;;;;;-5.81;91.39;101190.13;5103526;28;20055;-73
2022/12/11 05:21:06;;;;;;;23.35;4.75;;;;;;;-5.85;91.93;101202.56;5106346;28;20024;-74
2022/12/11 05:23:31;;;;;;;21.23;4.35;;;;;;;-5.85;91.75;101188.63;5112381;28;20031;-74
2022/12/11 05:26:00;;;;;;;17.63;4.40;;;;;;;-6.06;91.85;101148.75;5100298;28;20097;-73
2022/12/11 05:28:27;;;;;;;8.32;4.20;;;;;;;-5.62;91.27;101187.34;5110934;28;20032;-73
2022/12/11 05:30:57;;;;;;;16.77;4.88;;;;;;;-5.63;90.99;101196.13;5107765;28;20065;-72
2022/12/11 05:33:23;;;;;;;13.80;4.88;;;;;;;-5.66;90.92;101191.94;5103406;28;20497;-72
2022/12/11 05:35:48;;;;;;;11.00;4.78;;;;;;;-5.78;91.01;101193.44;5115312;28;20039;-72
2022/12/11 05:38:14;;;;;;;9.02;4.28;;;;;;;-5.78;91.43;101190.81;5084577;28;20042;-72
2022/12/11 05:40:40;;;;;;;9.32;4.28;;;;;;;-5.81;91.13;101188.38;5110615;28;20022;-72
2022/12/11 05:43:05;;;;;;;9.65;4.70;;;;;;;-5.64;90.35;101195.28;5108179;28;20035;-73
2022/12/11 05:45:30;;;;;;;7.10;4.05;;;;;;;-5.50;90.14;101197.13;5101439;28;20047;-72
2022/12/11 05:47:56;;;;;;;7.47;4.40;;;;;;;-5.43;89.59;101203.72;5113565;28;20040;-72
2022/12/11 05:50:21;;;;;;;7.05;3.92;;;;;;;-5.52;89.30;101170.16;5085030;28;20036;-72
2022/12/11 05:52:47;;;;;;;7.63;4.28;;;;;;;-5.39;88.94;101205.25;5109164;28;20028;-72
2022/12/11 05:55:12;;;;;;;7.72;4.30;;;;;;;-6.13;88.67;101105.47;5109993;28;20034;-72
2022/12/11 05:57:38;;;;;;;7.43;4.20;;;;;;;-5.45;88.56;101200.34;5083701;28;20040;-73
2022/12/11 06:00:04;;;;;;;8.15;4.50;;;;;;;-5.77;88.25;101174.16;5113892;28;20028;-72
2022/12/11 06:02:30;;;;;;;8.05;4.95;;;;;;;-5.62;88.53;101185.56;5102122;28;20047;-72
2022/12/11 06:04:58;;;;;;;9.73;4.95;;;;;;;-5.64;87.95;101176.09;5107131;28;20066;-72
2022/12/11 06:07:23;;;;;;;7.85;4.15;;;;;;;-5.44;87.95;101202.03;5111748;28;20370;-72
2022/12/11 06:09:51;;;;;;;7.88;4.50;;;;;;;-5.58;87.95;101183.63;5082779;28;20110;-72
2022/12/11 06:12:17;;;;;;;7.80;4.70;;;;;;;-5.40;87.46;101215.81;5111829;28;20104;-72
2022/12/11 06:14:42;;;;;;;9.00;4.70;;;;;;;-5.72;87.34;101185.25;5106075;28;20065;-72
2022/12/11 06:17:08;;;;;;;9.55;4.50;;;;;;;-5.53;87.32;101231.38;5105065;28;20047;-72
2022/12/11 06:19:34;;;;;;;7.65;4.03;;;;;;;-5.57;86.93;101227.25;5112548;28;20103;-73
2022/12/11 06:21:59;;;;;;;7.38;4.35;;;;;;;-5.70;87.10;101230.53;5099771;28;20093;-72
2022/12/11 06:24:24;;;;;;;8.20;4.50;;;;;;;-5.67;87.06;101237.41;5093847;28;20032;-72
2022/12/11 06:26:50;;;;;;;7.18;4.43;;;;;;;-5.72;86.99;101239.44;5104988;28;20151;-73
2022/12/11 06:29:15;;;;;;;9.15;4.35;;;;;;;-5.90;87.11;101239.50;5086307;28;20479;-72
2022/12/11 06:31:41;;;;;;;6.25;3.72;;;;;;;-5.97;87.02;101235.53;5113170;28;20041;-72
2022/12/11 06:34:08;;;;;;;6.85;4.05;;;;;;;-6.05;87.30;101231.66;5082728;28;20084;-72
2022/12/11 06:36:34;;;;;;;5.35;3.13;;;;;;;-6.05;87.35;101236.91;5111048;28;20445;-72
2022/12/11 06:38:59;;;;;;;6.53;3.10;;;;;;;-6.28;87.94;101236.34;5106664;28;20039;-72
2022/12/11 06:41:25;;;;;;;6.05;3.25;;;;;;;-6.26;87.60;101238.88;5102598;28;20036;-72
2022/12/11 06:43:50;;;;;;;5.90;2.88;;;;;;;-6.25;87.69;101230.94;5113938;28;20032;-71
2022/12/11 06:46:18;;;;;;;6.15;2.95;;;;;;;-6.39;88.31;101236.91;5100447;28;20083;-73
2022/12/11 06:48:45;;;;;;;3.92;2.45;;;;;;;-6.44;88.99;101233.66;5109379;28;20020;-72
2022/12/11 06:51:17;;;;;;;4.05;2.80;;;;;;;-6.53;89.40;101222.81;5107732;28;20417;-73
2022/12/11 06:53:42;;;;;;;4.32;2.92;;;;;;;-6.49;89.57;101237.44;5099963;28;20062;-72
2022/12/11 06:56:13;;;;;;;4.85;2.80;;;;;;;-6.56;89.98;101205.50;5112974;28;20032;-72
2022/12/11 06:58:40;;;;;;;5.07;2.80;;;;;;;-6.20;89.08;101239.38;5104152;28;20055;-72
2022/12/11 07:01:13;;;;;;;7.47;2.80;;;;;;;-6.16;89.08;101240.06;5104682;28;20028;-72
2022/12/11 07:03:39;;;;;;;4.28;2.45;;;;;;;-6.21;89.14;101242.94;5111459;28;20039;-72
2022/12/11 07:06:04;;;;;;;4.72;2.40;;;;;;;-6.19;89.06;101240.22;5100166;28;20499;-71
2022/12/11 07:08:30;;;;;;;4.55;2.67;;;;;;;-6.36;89.12;101212.31;5108600;28;20487;-71
2022/12/11 07:11:02;;;;;;;3.47;2.15;;;;;;;-6.01;88.35;101236.66;5105429;28;20028;-69
2022/12/11 07:13:28;;;;;;;4.35;2.58;;;;;;;-6.06;88.58;101235.19;5103043;28;20024;-71
2022/12/11 07:15:53;;;;;;;4.72;2.58;;;;;;;-6.16;88.20;101237.44;5112549;28;20084;-72
2022/12/11 07:18:19;;;;;;;4.93;2.65;;;;;;;-6.23;88.27;101247.41;5102036;28;20110;-71
2022/12/11 07:20:44;;;;;;;15.88;8.88;;;;;;;-6.05;87.64;101242.16;5108718;28;20058;-72
2022/12/11 07:23:10;;;;;;;23.52;13.38;;;;;;;-6.06;87.33;101240.44;5108407;28;20039;-70
2022/12/11 07:25:36;;;;;;;17.95;12.95;;;;;;;-6.10;87.34;101244.16;5083405;28;20117;-72
2022/12/11 07:28:01;;;;;;;14.38;8.95;;;;;;;-6.06;86.83;101241.31;5102746;28;20120;-73
2022/12/11 07:30:27;;;;;;;12.50;6.88;;;;;;;-6.04;86.69;101243.81;5104735;28;20032;-72
2022/12/11 07:32:52;;;;;;;15.80;8.68;;;;;;;-6.17;86.45;101215.66;5106719;28;20063;-72
2022/12/11 07:35:18;;;;;;;44.05;25.80;;;;;;;-6.07;86.62;101247.44;5091841;28;20128;-72
2022/12/11 07:37:44;;;;;;;17.90;10.85;;;;;;;-6.02;86.19;101253.31;5066647;28;20559;-72
2022/12/11 07:40:10;;;;;;;20.08;13.60;;;;;;;-6.06;86.31;101251.78;5114554;28;20032;-72
2022/12/11 07:42:36;;;;;;;13.98;8.02;;;;;;;-6.11;86.78;101256.41;5102763;28;20054;-72
2022/12/11 07:45:01;;;;;;;15.75;10.45;;;;;;;-6.05;86.39;101260.47;5115456;28;20433;-72
2022/12/11 07:47:27;;;;;;;13.48;8.57;;;;;;;-6.07;86.06;101260.53;5106323;28;20028;-72
2022/12/11 07:49:52;;;;;;;10.20;6.07;;;;;;;-6.02;85.96;101255.09;5116635;28;20543;-72
2022/12/11 07:52:17;;;;;;;8.00;4.43;;;;;;;-6.21;85.95;101229.84;5104715;28;20040;-72
2022/12/11 07:54:43;;;;;;;9.68;6.13;;;;;;;-6.00;85.86;101255.81;5113548;28;20032;-72
2022/12/11 07:57:08;;;;;;;8.52;5.45;;;;;;;-5.97;85.40;101253.03;5110595;28;20039;-72
2022/12/11 07:59:34;;;;;;;12.43;8.95;;;;;;;-5.98;85.10;101264.47;5105106;28;20027;-72
2022/12/11 08:01:59;;;;;;;36.47;28.38;;;;;;;-6.06;85.46;101257.03;5116615;28;20059;-72
2022/12/11 08:04:25;;;;;;;5.60;3.50;;;;;;;-6.19;86.05;101259.44;5104866;28;20059;-72
2022/12/11 08:06:51;;;;;;;5.72;3.75;;;;;;;-6.22;85.79;101249.13;5112345;28;20533;-73
2022/12/11 08:09:21;;;;;;;6.65;3.72;;;;;;;-6.11;86.27;101266.03;5114256;28;20031;-73
2022/12/11 08:11:50;;;;;;;4.65;3.03;;;;;;;-6.29;86.04;101234.66;5106042;28;20065;-74
2022/12/11 08:14:16;;;;;;;6.10;2.70;;;;;;;-6.05;85.93;101265.72;5092145;28;20035;-74
2022/12/11 08:16:42;;;;;;;4.53;2.78;;;;;;;-6.09;86.10;101258.94;5118619;28;20550;-74
2022/12/11 08:19:10;;;;;;;6.95;4.63;;;;;;;-6.04;85.49;101263.00;5099427;28;20035;-76
2022/12/11 08:21:35;;;;;;;4.32;2.78;;;;;;;-6.04;85.52;101277.88;5112374;28;20054;-73
2022/12/11 08:24:01;;;;;;;6.25;3.53;;;;;;;-6.08;85.83;101274.59;5119639;28;20043;-73
2022/12/11 08:26:28;;;;;;;19.00;6.50;;;;;;;-6.08;85.93;101278.97;5107748;28;20030;-73
2022/12/11 08:28:54;;;;;;;19.95;6.43;;;;;;;-6.18;86.59;101279.44;5113937;28;20024;-73
2022/12/11 08:31:21;;;;;;;10.48;4.07;;;;;;;-6.17;86.80;101277.66;5113933;28;20026;-72
2022/12/11 08:33:47;;;;;;;14.30;4.88;;;;;;;-6.07;86.68;101278.03;5111588;28;20034;-75
2022/12/11 08:36:15;;;;;;;13.13;5.15;;;;;;;-6.03;86.49;101269.09;5124078;28;20052;-77
2022/12/11 08:38:41;;;;;;;27.73;7.65;;;;;;;-5.96;86.47;101288.78;5108261;28;20028;-74
2022/12/11 08:41:10;;;;;;;19.60;5.47;;;;;;;-6.13;86.44;101239.91;5089446;28;20548;-75
2022/12/11 08:43:35;;;;;;;11.23;4.28;;;;;;;-5.98;86.77;101281.03;5115316;28;20027;-73
2022/12/11 08:46:01;;;;;;;11.30;4.75;;;;;;;-6.06;86.94;101257.03;5120162;27;20028;-74
2022/12/11 08:48:26;;;;;;;13.75;6.45;;;;;;;-5.96;87.63;101259.97;5083536;28;20391;-73
2022/12/11 08:50:52;;;;;;;16.13;7.80;;;;;;;-5.99;88.23;101266.25;5091615;28;20032;-74
2022/12/11 08:53:17;;;;;;;118.43;61.40;;;;;;;-5.91;88.44;101271.03;5089564;28;20035;-74
2022/12/11 08:55:44;;;;;;;90.72;50.03;;;;;;;-5.80;88.30;101252.94;5113744;28;20035;-76
2022/12/11 08:58:09;;;;;;;56.55;30.63;;;;;;;-5.71;87.30;101252.44;5098518;28;20047;-75
2022/12/11 09:00:35;;;;;;;129.93;67.18;;;;;;;-5.67;87.93;101274.09;5095064;28;20028;-74
2022/12/11 09:03:01;;;;;;;66.80;39.70;;;;;;;-5.45;87.47;101271.16;5091717;28;20680;-75
2022/12/11 09:05:26;;;;;;;26.83;16.63;;;;;;;-5.44;87.14;101250.06;5107071;28;20036;-76
2022/12/11 09:07:52;;;;;;;52.05;29.25;;;;;;;-5.33;87.59;101273.09;5115818;28;20039;-76
2022/12/11 09:10:17;;;;;;;198.50;89.38;;;;;;;-5.48;86.72;101226.75;5102504;28;20032;-77
2022/12/11 09:12:43;;;;;;;34.30;14.00;;;;;;;-5.58;87.49;101257.88;5111495;28;20403;-75
2022/12/11 09:15:09;;;;;;;29.48;16.17;;;;;;;-5.21;87.53;101285.50;5098663;28;20043;-73
2022/12/11 09:17:35;;;;;;;68.88;41.85;;;;;;;-5.18;87.55;101275.78;5098776;28;20039;-75
2022/12/11 09:20:00;;;;;;;32.08;16.17;;;;;;;-5.20;87.86;101281.97;5099069;28;20031;-79
2022/12/11 09:22:26;;;;;;;44.95;27.77;;;;;;;-5.27;88.45;101264.88;5103686;28;20444;-75
2022/12/11 09:24:51;;;;;;;20.85;10.35;;;;;;;-5.13;88.42;101281.59;5109634;28;20028;-75
2022/12/11 09:27:18;;;;;;;22.48;10.00;;;;;;;-5.29;88.22;101255.41;5107668;28;20214;-73
2022/12/11 09:29:44;;;;;;;52.90;28.80;;;;;;;-5.12;88.82;101285.94;5112126;28;20036;-74
2022/12/11 09:32:09;;;;;;;37.95;20.98;;;;;;;-5.26;89.73;101282.31;5100196;28;20038;-75
2022/12/11 09:34:35;;;;;;;44.97;27.75;;;;;;;-5.02;89.47;101260.88;5111588;28;20031;-76
2022/12/11 09:37:01;;;;;;;41.70;24.63;;;;;;;-4.67;88.46;101286.84;5107912;28;20023;-75
2022/12/11 09:39:26;;;;;;;31.50;18.98;;;;;;;-4.50;88.19;101289.34;5086708;28;20036;-73
2022/12/11 09:42:11;;;;;;;19.13;9.32;;;;;;;-4.54;88.34;101298.34;5097926;28;20055;-74
2022/12/11 09:44:51;;;;;;;;;;;;;;;-4.79;90.00;101294.50;5113677;28;20024;-75
2022/12/11 09:47:40;;;;;;;8.27;4.22;;;;;;;-4.72;89.82;101279.25;5114170;28;20401;-73
2022/12/11 09:50:16;;;;;;;31.77;18.63;;;;;;;-4.59;89.97;101287.25;5101281;28;20032;-73
2022/12/11 09:53:02;;;;;;;39.17;15.10;;;;;;;-4.44;89.79;101275.84;5109576;28;20024;-72
2022/12/11 09:55:49;;;;;;;17.02;10.60;;;;;;;-4.62;90.17;101271.69;5105953;28;20034;-73
2022/12/11 09:58:53;;;;;;;14.88;5.75;;;;;;;-4.67;90.35;101237.81;5113664;28;20432;-72
2022/12/11 10:02:02;;;;;;;12.10;4.55;;;;;;;-4.23;89.64;101272.88;5110042;28;20558;-73
2022/12/11 10:04:52;;;;;;;8.32;4.45;;;;;;;-4.21;89.50;101273.63;5086588;28;20115;-73
2022/12/11 10:07:37;;;;;;;15.43;4.45;;;;;;;-4.30;89.51;101254.88;5106691;28;20860;-75
2022/12/11 10:10:12;;;;;;;11.00;5.13;;;;;;;-4.00;89.25;101266.25;5114010;28;20096;-73
2022/12/11 10:13:07;;;;;;;13.98;4.95;;;;;;;-4.11;89.54;101261.63;5104814;28;20184;-71
2022/12/11 10:15:45;;;;;;;15.73;4.70;;;;;;;-4.19;89.74;101267.34;5104196;28;20084;-74
2022/12/11 10:18:16;;;;;;;10.93;5.32;;;;;;;-4.09;89.85;101267.63;5098446;28;20024;-73
2022/12/11 10:20:44;;;;;;;8.77;4.70;;;;;;;-4.00;89.43;101266.25;5116836;28;20039;-74
2022/12/11 10:23:34;;;;;;;12.60;4.85;;;;;;;-4.00;89.31;101263.59;5115041;28;20027;-73
2022/12/11 10:26:10;;;;;;;9.77;5.28;;;;;;;-3.86;89.25;101261.81;5115675;28;20023;-72
2022/12/11 10:28:35;;;;;;;11.13;5.60;;;;;;;-3.89;88.85;101262.00;5100914;28;20031;-73
2022/12/11 10:31:41;;;;;;;12.85;5.63;;;;;;;-3.83;88.87;101258.16;5111072;28;20024;-73
2022/12/11 10:34:22;;;;;;;10.52;5.20;;;;;;;-3.70;88.59;101259.06;5116617;28;20389;-73
2022/12/11 10:36:48;;;;;;;8.25;5.15;;;;;;;-3.59;88.37;101269.75;5106717;28;20031;-72
2022/12/11 10:39:16;;;;;;;10.45;5.28;;;;;;;-3.39;88.17;101265.84;5101025;28;20020;-72
2022/12/11 10:41:44;;;;;;;14.50;5.65;;;;;;;-3.43;87.28;101245.94;5099287;28;20028;-72
2022/12/11 10:44:22;;;;;;;12.93;5.78;;;;;;;-3.18;87.39;101258.38;5116572;28;20058;-72
2022/12/11 10:47:09;;;;;;;11.02;5.45;;;;;;;-3.07;87.18;101262.94;5126940;28;20402;-72
2022/12/11 10:49:36;;;;;;;9.52;5.07;;;;;;;-3.02;87.12;101260.00;5099703;28;20047;-73
2022/12/11 10:52:09;;;;;;;11.55;5.25;;;;;;;-3.14;86.78;101254.59;5112989;28;20142;-73
2022/12/11 10:54:38;;;;;;;8.80;5.10;;;;;;;-3.10;86.73;101255.25;5113499;28;20019;-73
2022/12/11 10:57:07;;;;;;;8.60;4.93;;;;;;;-3.29;86.91;101242.44;5109338;28;20023;-73
2022/12/11 10:59:51;;;;;;;24.13;12.98;;;;;;;-3.40;87.38;101251.03;5102289;28;20073;-72
2022/12/11 11:02:29;;;;;;;10.38;4.85;;;;;;;-3.26;86.82;101257.19;5113044;28;20047;-74
2022/12/11 11:04:58;;;;;;;10.48;5.22;;;;;;;-3.34;87.17;101260.31;5105213;28;20074;-73
2022/12/11 11:07:28;;;;;;;8.82;4.95;;;;;;;-3.57;87.42;101240.75;5106115;28;20024;-72
2022/12/11 11:10:24;;;;;;;9.55;5.47;;;;;;;-3.55;87.61;101247.56;5114778;28;20027;-73
2022/12/11 11:12:58;;;;;;;12.05;5.53;;;;;;;-3.42;87.67;101250.25;5088446;28;20078;-73
2022/12/11 11:15:27;;;;;;;10.85;5.93;;;;;;;-3.51;87.70;101245.59;5098059;28;20038;-73
2022/12/11 11:18:08;;;;;;;10.77;5.75;;;;;;;-3.36;87.94;101249.88;5097647;28;20024;-72
2022/12/11 11:20:34;;;;;;;9.32;5.25;;;;;;;-3.27;87.75;101245.81;5099116;28;20401;-72
2022/12/11 11:23:02;;;;;;;33.80;20.23;;;;;;;-3.25;87.50;101245.72;5129188;27;20097;-72
2022/12/11 11:25:30;;;;;;;81.85;50.17;;;;;;;-3.16;87.37;101245.13;5111447;28;20035;-72
2022/12/11 11:27:59;;;;;;;27.42;17.20;;;;;;;-3.28;87.34;101203.78;5102348;28;20024;-72
2022/12/11 11:30:29;;;;;;;64.82;40.22;;;;;;;-3.05;86.91;101236.50;5105422;28;20031;-72
2022/12/11 11:33:04;;;;;;;24.13;15.35;;;;;;;-2.88;87.16;101234.47;5110801;28;20024;-73
2022/12/11 11:35:30;;;;;;;;;;;;;;;-2.81;86.78;101237.53;5100640;28;20067;-72
2022/12/11 11:38:08;;;;;;;37.05;25.30;;;;;;;-2.90;86.73;101241.63;5115843;28;20002;-72
2022/12/11 11:40:42;;;;;;;32.80;23.73;;;;;;;-3.04;86.78;101240.84;5105850;28;20055;-74
2022/12/11 11:43:28;;;;;;;13.68;6.20;;;;;;;-3.15;87.41;101247.63;5108802;28;20114;-73